Okotoks, Canada
Current Conditions -  °F | °C
As of 10:00 AM on Wednesday 26 Nov 2014 (Local Time) from CYYC Reporting Station
Haze Haze  
Wind Chill: 14°   Ceiling: 400
Heat Index: 23°   Visibility: 1.5mi
Dew Point: 23°   Wind: 8mph
Humidity: 100%   Direction: 180°S
Pressure: 30.11"   Gusts: NA
Location:  50.73°N, 113.97°W
Report Text: CYYC 261700Z 18007KT 1 1/2SM BR OVC004 M05/M05 A3011 RMK FG1ST7 CIG VRB 3-5 SLP255
Loading
Personal Weather Stations






























Interactive Weather Map New forecast layout! Learn more

10-Day Weather Forecast

Advertisements
Track Severe Weather on mobile